createdAt,value
2019-04-29T00:01:12.338Z,60.56
2019-04-29T00:03:42.032Z,60.73
2019-04-29T00:06:11.599Z,60.77
2019-04-29T00:08:41.367Z,60.74
2019-04-29T00:11:11.013Z,60.76
2019-04-29T00:13:40.700Z,60.67
2019-04-29T00:16:27.817Z,60.45
2019-04-29T00:19:16.477Z,60.62
2019-04-29T00:21:46.186Z,60.28
2019-04-29T00:24:15.858Z,60.37
2019-04-29T00:26:45.853Z,60.52
2019-04-29T00:29:15.486Z,60.58
2019-04-29T00:31:45.361Z,60.81
2019-04-29T00:34:15.211Z,61.29
2019-04-29T00:36:55.047Z,61.43
2019-04-29T00:39:47.142Z,61.39
2019-04-29T00:42:24.425Z,61.26
2019-04-29T00:44:54.130Z,61.42
2019-04-29T00:47:23.731Z,61.37
2019-04-29T00:49:53.412Z,61.66
2019-04-29T00:52:22.949Z,61.66
2019-04-29T00:54:58.493Z,61.53
2019-04-29T00:57:28.230Z,61.46
2019-04-29T00:59:57.894Z,61.35
2019-04-29T01:02:27.938Z,61.31
2019-04-29T01:04:57.719Z,61.29
2019-04-29T01:07:27.280Z,61.30
2019-04-29T01:09:56.857Z,61.26
2019-04-29T01:12:26.493Z,61.26
2019-04-29T01:14:56.153Z,61.25
2019-04-29T01:17:26.387Z,61.62
2019-04-29T01:19:56.098Z,63.04
2019-04-29T01:22:25.741Z,62.92
2019-04-29T01:24:55.403Z,62.77
2019-04-29T01:27:29.823Z,62.60
2019-04-29T01:29:59.540Z,62.33
2019-04-29T01:32:29.189Z,62.04
2019-04-29T01:34:58.859Z,61.70
2019-04-29T01:37:42.620Z,61.97
2019-04-29T01:40:31.165Z,63.74
2019-04-29T01:43:00.918Z,63.18
2019-04-29T01:45:30.756Z,62.94
2019-04-29T01:48:00.328Z,62.77
2019-04-29T01:50:30.085Z,63.02
2019-04-29T01:52:59.641Z,63.01
2019-04-29T01:55:29.385Z,63.11
2019-04-29T01:57:59.071Z,62.92
2019-04-29T02:00:28.749Z,62.72
2019-04-29T02:02:58.382Z,62.66
2019-04-29T02:05:28.051Z,62.62
2019-04-29T02:07:57.800Z,62.58
2019-04-29T02:10:31.762Z,62.72
2019-04-29T02:13:01.432Z,62.71
2019-04-29T02:15:31.058Z,62.59
2019-04-29T02:18:00.437Z,62.58
2019-04-29T02:20:30.052Z,62.66
2019-04-29T02:23:33.616Z,62.64
2019-04-29T02:26:03.375Z,62.70
2019-04-29T02:28:32.962Z,62.83
2019-04-29T02:31:21.489Z,62.91
2019-04-29T02:33:51.118Z,62.93
2019-04-29T02:36:20.807Z,63.04
2019-04-29T02:39:12.536Z,63.13
2019-04-29T02:42:01.111Z,63.21
2019-04-29T02:44:30.834Z,63.14
2019-04-29T02:47:00.469Z,63.08
2019-04-29T02:49:30.049Z,62.96
2019-04-29T02:51:59.695Z,63.01
2019-04-29T02:54:30.166Z,63.02
2019-04-29T02:57:18.699Z,62.99
2019-04-29T02:59:50.875Z,62.71
2019-04-29T03:02:42.598Z,62.75
2019-04-29T03:05:17.627Z,62.27
2019-04-29T03:07:47.325Z,62.59
2019-04-29T03:10:16.877Z,63.99
2019-04-29T03:12:46.573Z,63.71
2019-04-29T03:15:31.797Z,63.90
2019-04-29T03:18:01.607Z,64.02
2019-04-29T03:20:36.375Z,63.75
2019-04-29T03:23:14.287Z,65.47
2019-04-29T03:25:43.894Z,70.20
2019-04-29T03:28:13.531Z,70.20
2019-04-29T03:30:43.336Z,70.34
2019-04-29T03:33:13.081Z,68.67
2019-04-29T03:35:42.661Z,67.66
2019-04-29T03:38:12.288Z,66.95
2019-04-29T03:40:42.090Z,66.99
2019-04-29T03:43:12.099Z,66.51
2019-04-29T03:45:42.229Z,66.25
2019-04-29T03:48:12.171Z,65.94
2019-04-29T03:50:41.724Z,65.76
2019-04-29T03:53:11.380Z,65.54
2019-04-29T03:55:40.945Z,65.29
2019-04-29T03:58:10.579Z,65.15
2019-04-29T04:00:44.008Z,64.91
2019-04-29T04:03:23.049Z,64.74
2019-04-29T04:06:04.843Z,64.67
2019-04-29T04:08:37.130Z,64.49
2019-04-29T04:11:07.381Z,64.70
2019-04-29T04:13:37.021Z,64.80
2019-04-29T04:16:08.231Z,64.91
2019-04-29T04:18:37.150Z,64.88
2019-04-29T04:21:06.732Z,64.99
2019-04-29T04:23:36.345Z,64.92
2019-04-29T04:26:05.951Z,64.75
2019-04-29T04:28:35.486Z,64.57
2019-04-29T04:31:07.084Z,64.29
2019-04-29T04:33:36.521Z,63.97
2019-04-29T04:36:06.081Z,63.70
2019-04-29T04:38:35.788Z,64.39
2019-04-29T04:41:08.579Z,66.09
2019-04-29T04:43:38.251Z,65.89
2019-04-29T04:46:07.907Z,64.89
2019-04-29T04:48:37.641Z,63.91
2019-04-29T04:51:07.268Z,64.05
2019-04-29T04:53:36.860Z,63.47
2019-04-29T04:56:06.524Z,63.00
2019-04-29T04:58:36.147Z,64.44
2019-04-29T05:01:05.821Z,65.33
2019-04-29T05:03:35.375Z,64.48
2019-04-29T05:06:05.028Z,63.93
2019-04-29T05:08:34.609Z,64.69
2019-04-29T05:11:04.112Z,64.61
2019-04-29T05:13:33.720Z,62.98
2019-04-29T05:16:03.368Z,62.02
2019-04-29T05:18:33.023Z,62.08
2019-04-29T05:21:02.517Z,60.60
2019-04-29T05:23:32.250Z,58.85
2019-04-29T05:26:01.885Z,57.82
2019-04-29T05:28:31.459Z,57.07
2019-04-29T05:31:01.083Z,56.13
2019-04-29T05:33:30.650Z,55.92
2019-04-29T05:36:19.310Z,55.60
2019-04-29T05:38:55.050Z,54.91
2019-04-29T05:41:30.213Z,54.77
2019-04-29T05:44:10.140Z,56.26
2019-04-29T05:46:47.423Z,56.94
2019-04-29T05:49:20.559Z,58.40
2019-04-29T05:52:03.245Z,58.71
2019-04-29T05:54:33.552Z,57.78
2019-04-29T05:57:03.229Z,56.17
2019-04-29T05:59:32.785Z,53.94
2019-04-29T06:02:02.455Z,52.55
2019-04-29T06:04:32.125Z,54.32
2019-04-29T06:07:01.771Z,52.20
2019-04-29T06:09:31.341Z,50.42
2019-04-29T06:12:00.989Z,50.47
2019-04-29T06:14:30.678Z,50.47
2019-04-29T06:17:02.889Z,49.66
2019-04-29T06:19:35.145Z,48.05
2019-04-29T06:22:03.927Z,46.59
2019-04-29T06:24:36.838Z,46.27
2019-04-29T06:27:05.072Z,44.59
2019-04-29T06:29:34.579Z,45.00
2019-04-29T06:32:04.319Z,44.14
2019-04-29T06:34:35.483Z,43.11
2019-04-29T06:37:05.488Z,42.98
2019-04-29T06:39:35.230Z,44.62
2019-04-29T06:42:04.999Z,44.42
2019-04-29T06:44:34.537Z,45.31
2019-04-29T06:47:04.345Z,44.47
2019-04-29T06:49:33.977Z,46.25
2019-04-29T06:52:03.731Z,44.44
2019-04-29T06:54:33.395Z,41.81
2019-04-29T06:57:03.134Z,40.32
2019-04-29T06:59:32.717Z,38.31
2019-04-29T07:02:02.479Z,37.25
2019-04-29T07:04:38.439Z,36.24
2019-04-29T07:07:03.532Z,36.24
2019-04-29T07:09:33.184Z,35.73
2019-04-29T07:12:02.933Z,35.31
2019-04-29T07:14:35.939Z,35.15
2019-04-29T07:17:05.574Z,34.61
2019-04-29T07:19:35.181Z,34.18
2019-04-29T07:22:04.847Z,34.10
2019-04-29T07:24:34.564Z,33.55
2019-04-29T07:27:04.483Z,32.59
2019-04-29T07:29:34.170Z,31.90
2019-04-29T07:32:04.677Z,32.19
2019-04-29T07:34:39.203Z,31.72
2019-04-29T07:37:06.357Z,31.59
2019-04-29T07:39:36.028Z,30.63
2019-04-29T07:42:05.673Z,29.99
2019-04-29T07:44:44.668Z,28.83
2019-04-29T07:47:14.416Z,28.46
2019-04-29T07:49:47.388Z,26.98
2019-04-29T07:52:16.185Z,26.88
2019-04-29T07:54:48.273Z,27.23
2019-04-29T07:57:18.087Z,27.27
2019-04-29T07:59:47.829Z,26.40
2019-04-29T08:02:17.379Z,27.22
2019-04-29T08:04:46.931Z,25.19
2019-04-29T08:07:16.793Z,25.70
2019-04-29T08:09:46.467Z,24.52
2019-04-29T08:12:16.186Z,24.82
2019-04-29T08:14:45.891Z,25.25
2019-04-29T08:17:15.522Z,25.72
2019-04-29T08:19:45.189Z,24.00
2019-04-29T08:22:18.103Z,23.45
2019-04-29T08:24:50.419Z,23.28
2019-04-29T08:27:17.314Z,22.56
2019-04-29T08:29:47.036Z,22.38
2019-04-29T08:32:16.738Z,22.09
2019-04-29T08:34:46.407Z,21.34
2019-04-29T08:37:16.073Z,20.79
2019-04-29T08:40:00.438Z,21.08
2019-04-29T08:42:22.043Z,20.45
2019-04-29T08:45:10.595Z,18.99
2019-04-29T08:47:42.154Z,18.15
2019-04-29T08:50:11.754Z,17.67
2019-04-29T08:52:41.106Z,17.45
2019-04-29T08:55:10.503Z,17.65
2019-04-29T08:57:39.857Z,17.51
2019-04-29T09:00:09.264Z,16.63
2019-04-29T09:02:41.281Z,16.09
2019-04-29T09:18:41.040Z,20.36
2019-04-29T09:21:10.475Z,17.98
2019-04-29T09:23:39.826Z,18.23
2019-04-29T09:26:28.338Z,19.02
2019-04-29T09:28:59.812Z,19.60
2019-04-29T09:31:28.865Z,20.23
2019-04-29T09:34:06.559Z,19.92
2019-04-29T09:36:29.511Z,19.75
2019-04-29T09:38:58.982Z,19.35
2019-04-29T09:41:38.678Z,19.86
2019-04-29T09:44:25.863Z,20.07
2019-04-29T09:46:55.303Z,19.85
2019-04-29T09:49:24.691Z,19.84
2019-04-29T09:51:54.112Z,20.87
2019-04-29T09:54:24.159Z,21.52
2019-04-29T09:56:53.773Z,21.02
2019-04-29T09:59:31.258Z,21.98
2019-04-29T10:02:26.526Z,21.08
2019-04-29T10:05:22.394Z,22.03
2019-04-29T10:07:51.952Z,21.74
2019-04-29T10:10:21.694Z,21.78
2019-04-29T10:12:53.957Z,22.12
2019-04-29T10:15:29.353Z,22.51
2019-04-29T10:18:12.090Z,21.82
2019-04-29T10:20:47.290Z,21.98
2019-04-29T10:23:16.702Z,22.71
2019-04-29T10:25:46.069Z,23.15
2019-04-29T10:28:15.551Z,23.02
2019-04-29T10:30:45.071Z,23.67
2019-04-29T10:33:17.668Z,23.67
2019-04-29T10:35:46.351Z,23.75
2019-04-29T10:38:15.739Z,24.67
2019-04-29T10:41:04.330Z,24.04
2019-04-29T10:43:55.750Z,24.31
2019-04-29T10:46:52.863Z,24.35
2019-04-29T10:49:27.162Z,23.96
2019-04-29T10:51:57.943Z,22.61
2019-04-29T10:54:28.053Z,21.83
2019-04-29T10:56:57.557Z,22.64
2019-04-29T10:59:35.573Z,21.10
2019-04-29T11:02:52.858Z,22.26
2019-04-29T11:05:44.531Z,20.88
2019-04-29T11:08:27.960Z,21.56
2019-04-29T11:11:02.347Z,20.89
2019-04-29T11:13:31.464Z,20.50
2019-04-29T11:16:00.907Z,21.04
2019-04-29T11:18:30.533Z,20.34
2019-04-29T11:21:00.003Z,20.69
2019-04-29T11:23:50.785Z,20.36
2019-04-29T11:26:39.700Z,19.95
2019-04-29T11:29:09.621Z,21.45
2019-04-29T11:31:39.413Z,22.40
2019-04-29T11:34:18.028Z,22.62
2019-04-29T11:36:47.548Z,22.67
2019-04-29T11:39:16.990Z,22.46
2019-04-29T11:41:46.363Z,22.05
2019-04-29T11:44:16.430Z,21.04
2019-04-29T11:46:49.104Z,22.08
2019-04-29T11:49:18.700Z,22.05
2019-04-29T11:52:08.490Z,22.05
2019-04-29T11:54:20.866Z,22.06
2019-04-29T11:56:50.258Z,21.59
2019-04-29T11:59:37.114Z,21.19
2019-04-29T12:02:30.757Z,21.58
2019-04-29T12:04:59.597Z,21.47
2019-04-29T12:07:32.784Z,21.87
2019-04-29T12:10:02.337Z,23.03
2019-04-29T12:12:31.625Z,23.02
2019-04-29T12:15:26.571Z,22.19
2019-04-29T12:18:18.252Z,22.64
2019-04-29T12:21:02.943Z,22.83
2019-04-29T12:23:32.400Z,22.35
2019-04-29T12:26:03.201Z,22.25
2019-04-29T12:28:33.276Z,21.75
2019-04-29T12:31:10.367Z,21.44
2019-04-29T12:33:44.561Z,20.59
2019-04-29T12:36:16.447Z,21.80
2019-04-29T12:39:03.296Z,21.55
2019-04-29T12:42:00.678Z,21.26
2019-04-29T12:44:44.078Z,22.70
2019-04-29T12:47:38.478Z,22.14
2019-04-29T12:50:07.956Z,21.92
2019-04-29T12:52:37.462Z,23.09
2019-04-29T12:55:19.629Z,21.87
2019-04-29T12:57:39.301Z,19.88
2019-04-29T13:00:10.520Z,22.06
2019-04-29T13:03:05.381Z,22.20
2019-04-29T13:05:58.242Z,21.89
2019-04-29T13:08:35.443Z,22.45
2019-04-29T13:11:06.328Z,23.54
2019-04-29T13:13:35.719Z,22.87
2019-04-29T13:16:25.298Z,22.10
2019-04-29T13:19:20.445Z,22.96
2019-04-29T13:21:50.281Z,22.82
2019-04-29T13:24:24.878Z,22.43
2019-04-29T13:26:51.366Z,22.73
2019-04-29T13:31:52.307Z,24.04
2019-04-29T13:33:22.628Z,22.88
2019-04-29T13:34:32.782Z,23.93
2019-04-29T13:37:07.428Z,24.09
2019-04-29T13:39:39.936Z,24.41
2019-04-29T13:42:09.054Z,24.99
2019-04-29T13:44:41.299Z,24.09
2019-04-29T13:47:29.097Z,24.40
2019-04-29T13:50:17.899Z,24.34
2019-04-29T13:52:34.906Z,24.03
2019-04-29T13:55:17.062Z,24.91
2019-04-29T13:57:35.482Z,24.80
2019-04-29T14:00:30.219Z,25.84
2019-04-29T14:03:11.767Z,26.52
2019-04-29T14:05:41.462Z,26.89
2019-04-29T14:08:10.018Z,26.60
2019-04-29T14:10:39.452Z,26.88
2019-04-29T14:13:13.321Z,27.00
2019-04-29T14:18:12.044Z,27.02
2019-04-29T14:18:53.558Z,27.11
2019-04-29T14:20:42.287Z,27.53
2019-04-29T14:23:11.707Z,28.34
2019-04-29T14:25:41.100Z,29.96
2019-04-29T14:28:10.572Z,29.82
2019-04-29T14:30:43.784Z,31.95
2019-04-29T14:33:11.272Z,33.09
2019-04-29T14:35:48.167Z,32.89
2019-04-29T14:38:16.950Z,32.09
2019-04-29T14:40:46.530Z,31.01
2019-04-29T14:43:31.404Z,31.35
2019-04-29T14:46:16.177Z,30.60
2019-04-29T14:48:55.068Z,30.53
2019-04-29T14:51:27.926Z,30.19
2019-04-29T14:53:57.078Z,30.13
2019-04-29T14:56:26.692Z,29.57
2019-04-29T14:59:06.570Z,29.44
2019-04-29T15:01:38.317Z,28.98
2019-04-29T15:04:17.950Z,29.20
2019-04-29T15:06:41.149Z,29.30
2019-04-29T15:09:17.481Z,30.23
2019-04-29T15:12:04.712Z,29.94
2019-04-29T15:14:41.063Z,30.01
2019-04-29T15:17:35.431Z,29.85
2019-04-29T15:20:11.296Z,30.51
2019-04-29T15:22:41.081Z,30.49
2019-04-29T15:25:10.637Z,30.92
2019-04-29T15:27:40.453Z,30.71
2019-04-29T15:30:10.332Z,30.56
2019-04-29T15:32:40.044Z,30.70
2019-04-29T15:35:09.695Z,30.77
2019-04-29T15:37:39.313Z,30.59
2019-04-29T15:40:09.715Z,31.27
2019-04-29T15:42:42.790Z,31.40
2019-04-29T15:45:10.268Z,31.42
2019-04-29T15:47:41.713Z,31.51
2019-04-29T15:50:18.775Z,32.02
2019-04-29T15:52:41.922Z,32.95
2019-04-29T15:55:11.336Z,34.28
2019-04-29T15:57:41.030Z,34.76
2019-04-29T16:00:21.619Z,35.96
2019-04-29T16:02:44.192Z,35.16
2019-04-29T16:06:18.928Z,36.02
2019-04-29T16:08:38.245Z,34.81
2019-04-29T16:11:38.538Z,34.54
2019-04-29T16:14:12.094Z,33.26
2019-04-29T16:16:41.721Z,32.76
2019-04-29T16:19:11.141Z,33.58
2019-04-29T16:21:41.798Z,32.86
2019-04-29T16:24:26.041Z,32.57
2019-04-29T16:26:42.378Z,33.42
2019-04-29T16:29:12.986Z,33.54
2019-04-29T16:31:42.887Z,35.11
2019-04-29T16:34:12.313Z,35.66
2019-04-29T16:36:43.636Z,36.62
2019-04-29T16:39:12.790Z,36.66
2019-04-29T16:42:01.578Z,36.24
2019-04-29T16:44:36.234Z,35.68
2019-04-29T16:47:07.396Z,36.50
2019-04-29T16:49:33.546Z,36.53
2019-04-29T16:52:02.943Z,36.22
2019-04-29T16:54:32.351Z,36.32
2019-04-29T16:57:01.735Z,36.81
2019-04-29T16:59:31.454Z,38.11
2019-04-29T17:02:00.827Z,39.80
2019-04-29T17:04:30.241Z,41.65
2019-04-29T17:07:12.371Z,41.66
2019-04-29T17:09:42.234Z,41.97
2019-04-29T17:12:11.643Z,43.34
2019-04-29T17:15:02.364Z,43.72
2019-04-29T17:17:16.891Z,43.58
2019-04-29T17:20:05.439Z,44.09
2019-04-29T17:22:35.699Z,46.29
2019-04-29T17:25:08.208Z,46.03
2019-04-29T17:27:59.320Z,46.34
2019-04-29T17:30:49.311Z,46.02
2019-04-29T17:33:29.818Z,46.16
2019-04-29T17:35:59.204Z,46.12
2019-04-29T17:38:28.799Z,47.14
2019-04-29T17:40:58.443Z,46.81
2019-04-29T17:43:47.015Z,45.20
2019-04-29T17:46:44.888Z,43.54
2019-04-29T17:49:33.439Z,45.36
2019-04-29T17:52:06.348Z,45.65
2019-04-29T17:54:39.823Z,47.06
2019-04-29T17:57:31.225Z,45.86
2019-04-29T18:00:10.614Z,45.04
2019-04-29T18:03:00.912Z,45.36
2019-04-29T18:06:05.324Z,44.67
2019-04-29T18:08:52.189Z,44.46
2019-04-29T18:11:21.913Z,44.30
2019-04-29T18:13:52.520Z,44.28
2019-04-29T18:16:28.412Z,45.27
2019-04-29T18:19:06.362Z,44.52
2019-04-29T18:22:03.868Z,45.36
2019-04-29T18:24:52.425Z,44.32
2019-04-29T18:27:23.123Z,45.19
2019-04-29T18:29:54.921Z,44.04
2019-04-29T18:32:34.987Z,44.07
2019-04-29T18:34:55.941Z,44.27
2019-04-29T18:37:25.960Z,43.42
2019-04-29T18:39:57.679Z,43.61
2019-04-29T18:42:27.214Z,43.46
2019-04-29T18:45:00.259Z,43.14
2019-04-29T18:47:34.871Z,43.58
2019-04-29T18:49:59.790Z,43.45
2019-04-29T18:52:30.470Z,43.15
2019-04-29T18:55:00.140Z,43.50
2019-04-29T18:57:30.920Z,44.76
2019-04-29T19:00:05.810Z,45.43
2019-04-29T19:02:32.347Z,46.93
2019-04-29T19:05:26.376Z,46.03
2019-04-29T19:08:10.898Z,47.10
2019-04-29T19:10:34.492Z,45.98
2019-04-29T19:13:00.472Z,46.42
2019-04-29T19:15:30.903Z,45.82
2019-04-29T19:18:02.028Z,46.68
2019-04-29T19:20:31.750Z,45.89
2019-04-29T19:23:08.141Z,45.71
2019-04-29T19:25:32.714Z,46.54
2019-04-29T19:28:11.840Z,45.98
2019-04-29T19:30:35.522Z,48.82
2019-04-29T19:33:05.850Z,50.20
2019-04-29T19:35:38.549Z,50.43
2019-04-29T19:38:12.415Z,50.76
2019-04-29T19:40:42.544Z,49.44
2019-04-29T19:43:15.342Z,50.00
2019-04-29T19:45:44.693Z,48.92
2019-04-29T19:48:13.452Z,49.21
2019-04-29T19:50:45.118Z,48.06
2019-04-29T19:53:14.836Z,47.35
2019-04-29T19:55:46.372Z,46.77
2019-04-29T19:58:16.909Z,46.84
2019-04-29T20:00:47.935Z,47.24
2019-04-29T20:03:23.431Z,47.06
2019-04-29T20:05:54.110Z,47.63
2019-04-29T20:08:46.677Z,47.39
2019-04-29T20:11:10.914Z,47.63
2019-04-29T20:13:31.889Z,49.12
2019-04-29T20:16:39.771Z,49.47
2019-04-29T20:19:16.216Z,49.72
2019-04-29T20:21:41.942Z,49.85
2019-04-29T20:24:15.532Z,50.14
2019-04-29T20:26:44.130Z,50.10
2019-04-29T20:29:15.925Z,50.59
2019-04-29T20:31:52.028Z,51.08
2019-04-29T20:34:23.685Z,51.86
2019-04-29T20:36:48.484Z,52.21
2019-04-29T20:39:38.817Z,52.32
2019-04-29T20:42:10.197Z,52.26
2019-04-29T20:44:44.399Z,52.19
2019-04-29T20:47:22.233Z,52.47
2019-04-29T20:49:44.107Z,52.80
2019-04-29T20:52:36.876Z,53.77
2019-04-29T20:55:09.189Z,53.76
2019-04-29T20:57:38.566Z,55.61
2019-04-29T21:00:08.860Z,55.96
2019-04-29T21:02:38.725Z,56.11
2019-04-29T21:05:10.228Z,56.19
2019-04-29T21:07:41.138Z,56.30
2019-04-29T21:10:10.810Z,56.40
2019-04-29T21:12:59.593Z,57.08
2019-04-29T21:15:37.531Z,57.42
2019-04-29T21:18:10.381Z,56.18
2019-04-29T21:20:38.698Z,55.90
2019-04-29T21:23:08.339Z,55.01
2019-04-29T21:25:37.982Z,55.52
2019-04-29T21:28:07.653Z,55.16
2019-04-29T21:30:42.591Z,55.70
2019-04-29T21:33:18.230Z,55.43
2019-04-29T21:36:07.975Z,55.62
2019-04-29T21:39:01.483Z,54.76
2019-04-29T21:41:55.473Z,54.59
2019-04-29T21:44:27.447Z,54.79
2019-04-29T21:46:55.263Z,54.95
2019-04-29T21:49:25.842Z,55.66
2019-04-29T21:51:55.636Z,56.80
2019-04-29T21:54:25.378Z,56.52
2019-04-29T21:56:55.587Z,56.96
2019-04-29T21:59:25.879Z,56.48
2019-04-29T22:01:56.212Z,57.12
2019-04-29T22:04:26.690Z,56.37
2019-04-29T22:06:59.944Z,55.72
2019-04-29T22:09:35.840Z,56.08
2019-04-29T22:11:59.141Z,56.02
2019-04-29T22:14:28.809Z,55.91
2019-04-29T22:16:58.487Z,56.23
2019-04-29T22:19:28.257Z,56.06
2019-04-29T22:22:01.542Z,56.14
2019-04-29T22:24:30.034Z,55.74
2019-04-29T22:27:03.772Z,55.83
2019-04-29T22:29:32.146Z,55.96
2019-04-29T22:32:02.594Z,55.57
2019-04-29T22:34:32.286Z,57.02
2019-04-29T22:37:01.925Z,57.14
2019-04-29T22:39:31.694Z,56.79
2019-04-29T22:42:15.606Z,57.04
2019-04-29T22:44:45.743Z,57.87
2019-04-29T22:47:17.284Z,58.30
2019-04-29T22:49:46.788Z,59.08
2019-04-29T22:52:16.465Z,59.62
2019-04-29T22:54:46.201Z,59.94
2019-04-29T22:57:15.886Z,59.94
2019-04-29T22:59:45.553Z,59.58
2019-04-29T23:02:15.750Z,60.39
2019-04-29T23:04:47.245Z,61.82
2019-04-29T23:07:17.691Z,62.66
2019-04-29T23:09:51.125Z,62.74
2019-04-29T23:12:20.799Z,63.79
2019-04-29T23:14:50.454Z,65.67
2019-04-29T23:17:20.121Z,65.74
2019-04-29T23:19:52.829Z,66.26
2019-04-29T23:22:41.484Z,66.54
2019-04-29T23:25:21.853Z,66.97
2019-04-29T23:27:52.557Z,66.95
2019-04-29T23:30:27.503Z,67.55
2019-04-29T23:32:57.267Z,67.49
2019-04-29T23:35:26.860Z,66.90
2019-04-29T23:37:58.814Z,66.95
2019-04-29T23:40:28.025Z,67.36
2019-04-29T23:42:57.586Z,68.01
2019-04-29T23:45:27.329Z,68.09
2019-04-29T23:47:57.111Z,69.36
2019-04-29T23:50:28.132Z,68.61
2019-04-29T23:52:58.047Z,68.41
2019-04-29T23:55:29.184Z,69.60
2019-04-29T23:58:19.915Z,69.97
